LFTW/FNI METAR and TAF weather

Enter ICAO airport designator
Station Type Date Time Source
LFTW METAR 2019/07/18 11:30 UTC NOAA

LFTW 181130Z AUTO 31007KT 250V030 CAVOK 33/11 Q1012 NOSIG


Station Type Date Time Source
LFTW Decoded METAR 2019/07/18 11:30 UTC NOAA

Nimes / Garons, France (LFTW) 43-45N 004-25E 96M
Jul 18, 2019 - 07:30 AM EDT / 2019.07.18 1130 UTC
Wind: from the NW (310 degrees) at 8 MPH (7 KT) (direction variable):0
Visibility: greater than 7 mile(s):0
Temperature: 91 F (33 C)
Dew Point: 51 F (11 C)
Relative Humidity: 26%
Pressure (altimeter): 29.88 in. Hg (1012 hPa)
ob: LFTW 181130Z AUTO 31007KT 250V030 CAVOK 33/11 Q1012 NOSIG
cycle: 11

Station Type Date Time Source
LFTW TAF 2019/07/18 09:26 UTC NOAA

TAF LFTW 180800Z 1809/1909 30008KT CAVOK
TEMPO 1817/1820 32012G22KT
BECMG 1822/1901 36010KT

Example: see airport list